Time;durP1;ratioP1;P1;durP2;ratioP2;P2;SDS_P1;SDS_P2;PMS_P1;PMS_P2;Temp;Humidity;BMP_temperature;BMP_pressure;BME280_temperature;BME280_humidity;BME280_pressure;Samples;Min_cycle;Max_cycle;Signal;HPM_P1;HPM_P2
2021/04/26 00:00:16;;;;;;;;;;;;;;;3.56;56.86;100043.88;5132560;27;19920;-71
2021/04/26 00:02:57;;;;;;;;;;;;;;;3.52;57.00;100042.06;5133426;27;19912;-71
2021/04/26 00:05:38;;;;;;;;;;;;;;;3.41;57.81;100045.88;5133458;27;19920;-72
2021/04/26 00:08:19;;;;;;;;;;;;;;;3.36;57.34;100052.44;5133301;27;19923;-70
2021/04/26 00:10:59;;;;;;;;;;;;;;;3.35;58.09;100051.59;5133407;27;19942;-70
2021/04/26 00:13:40;;;;;;;;;;;;;;;3.38;57.38;100046.63;5133371;27;19916;-71
2021/04/26 00:16:20;;;;;;;;;;;;;;;3.39;57.42;100053.41;5133355;27;19936;-71
2021/04/26 00:19:01;;;;;;;;;;;;;;;3.39;58.13;100058.47;5133172;27;19916;-70
2021/04/26 00:21:41;;;;;;;;;;;;;;;3.36;58.06;100055.81;5133411;27;19923;-70
2021/04/26 00:24:21;;;;;;;;;;;;;;;3.37;57.69;100056.69;5133432;27;19941;-72
2021/04/26 00:27:01;;;;;;;;;;;;;;;3.39;57.23;100062.63;5133091;27;19916;-70
2021/04/26 00:29:42;;;;;;;;;;;;;;;3.33;58.04;100057.41;5132954;27;20397;-71
2021/04/26 00:32:22;;;;;;;;;;;;;;;3.23;58.26;100060.41;5133371;27;19916;-71
2021/04/26 00:35:04;;;;;;;;;;;;;;;3.23;57.88;100063.78;5133379;27;19920;-71
2021/04/26 00:37:46;;;;;;;;;;;;;;;3.27;57.57;100058.03;5133343;27;19919;-71
2021/04/26 00:40:26;;;;;;;;;;;;;;;3.26;57.74;100058.00;5132901;27;19912;-71
2021/04/26 00:43:07;;;;;;;;;;;;;;;3.18;58.38;100064.44;5133407;27;19923;-72
2021/04/26 00:45:49;;;;;;;;;;;;;;;3.20;59.14;100066.22;5133436;27;19919;-70
2021/04/26 00:48:29;;;;;;;;;;;;;;;3.06;59.20;100066.53;5133467;27;19920;-71
2021/04/26 00:51:10;;;;;;;;;;;;;;;3.00;58.95;100066.31;5132657;27;19915;-71
2021/04/26 00:53:52;;;;;;;;;;;;;;;2.98;59.79;100067.91;5133353;27;19932;-71
2021/04/26 00:56:33;;;;;;;;;;;;;;;2.97;59.58;100066.22;5112803;27;19946;-71
2021/04/26 00:59:14;;;;;;;;;;;;;;;2.88;59.90;100064.19;5133379;27;19937;-70
2021/04/26 01:01:56;;;;;;;;;;;;;;;2.79;59.83;100061.34;5133348;27;20285;-71
2021/04/26 01:04:35;;;;;;;;;;;;;;;2.77;60.00;100067.16;5133410;27;19941;-71
2021/04/26 01:07:17;;;;;;;;;;;;;;;2.78;59.93;100069.75;5133414;27;19941;-70
2021/04/26 01:09:58;;;;;;;;;;;;;;;2.77;60.62;100074.72;5132694;27;19942;-71
2021/04/26 01:12:45;;;;;;;;;;;;;;;2.80;60.77;100082.38;5133404;27;19916;-72
2021/04/26 01:15:28;;;;;;;;;;;;;;;2.80;61.00;100072.31;5133426;27;20320;-70
2021/04/26 01:18:10;;;;;;;;;;;;;;;2.72;60.69;100074.53;5133407;27;19937;-70
2021/04/26 01:21:08;;;;;;;;;;;;;;;2.64;60.60;100081.81;5133127;27;19912;-70
2021/04/26 01:24:00;;;;;;;;;;;;;;;2.60;61.41;100084.16;5111881;28;19924;-71
2021/04/26 01:26:32;;;;;;;;;;;;;;;2.56;61.22;100088.25;5131292;28;19924;-72
2021/04/26 01:29:15;;;;;;;;;;;;;;;2.56;61.91;100090.78;5133527;27;19919;-70
2021/04/26 01:32:08;;;;;;;;;;;;;;;2.56;61.34;100083.22;5132766;27;20458;-71
2021/04/26 01:34:49;;;;;;;;;;;;;;;2.61;61.08;100079.22;5133518;27;19912;-71
2021/04/26 01:37:38;;;;;;;;;;;;;;;2.52;61.76;100086.41;5133518;27;20007;-70
2021/04/26 01:40:20;;;;;;;;;;;;;;;2.49;61.79;100086.31;5133367;27;20434;-71
2021/04/26 01:43:01;;;;;;;;;;;;;;;2.40;61.40;100073.34;5133525;27;19919;-70
2021/04/26 01:45:43;;;;;;;;;;;;;;;2.46;61.82;100076.09;5133394;27;19916;-71
2021/04/26 01:48:26;;;;;;;;;;;;;;;2.34;61.86;100079.81;5133474;27;19937;-70
2021/04/26 01:51:09;;;;;;;;;;;;;;;2.34;61.87;100085.72;5133258;27;19937;-70
2021/04/26 01:53:51;;;;;;;;;;;;;;;2.33;62.89;100081.47;5133403;27;19912;-71
2021/04/26 01:56:35;;;;;;;;;;;;;;;2.36;62.60;100079.06;5133475;27;20369;-70
2021/04/26 01:59:20;;;;;;;;;;;;;;;2.36;62.42;100078.22;5133505;27;19916;-70
2021/04/26 02:02:01;;;;;;;;;;;;;;;2.25;62.29;100082.84;5132939;27;19912;-71
2021/04/26 02:04:43;;;;;;;;;;;;;;;2.15;63.05;100087.47;5133383;27;19916;-72
2021/04/26 02:07:35;;;;;;;;;;;;;;;2.19;63.03;100079.22;5133425;27;19938;-71
2021/04/26 02:10:28;;;;;;;;;;;;;;;2.14;63.21;100076.53;5133486;27;19912;-72
2021/04/26 02:13:09;;;;;;;;;;;;;;;2.16;63.56;100074.91;5132663;27;20342;-71
2021/04/26 02:15:52;;;;;;;;;;;;;;;2.15;63.30;100073.22;5133477;27;19937;-71
2021/04/26 02:18:32;;;;;;;;;;;;;;;2.18;62.98;100063.28;5133447;27;19931;-70
2021/04/26 02:21:13;;;;;;;;;;;;;;;2.16;63.15;100077.44;5133380;27;19916;-71
2021/04/26 02:23:54;;;;;;;;;;;;;;;2.09;63.25;100070.44;5133447;27;19920;-70
2021/04/26 02:26:35;;;;;;;;;;;;;;;2.13;63.18;100074.81;5133435;27;19937;-70
2021/04/26 02:29:16;;;;;;;;;;;;;;;2.17;63.43;100075.78;5135876;27;1691537;-71
2021/04/26 02:32:00;;;;;;;;;;;;;;;2.23;63.57;100074.34;5133203;27;20335;-70
2021/04/26 02:34:45;;;;;;;;;;;;;;;2.20;63.53;100074.25;5133463;27;19937;-72
2021/04/26 02:37:30;;;;;;;;;;;;;;;2.06;62.92;100072.00;5112925;27;20370;-70
2021/04/26 02:40:13;;;;;;;;;;;;;;;1.99;63.15;100055.81;5133424;27;19912;-71
2021/04/26 02:43:01;;;;;;;;;;;;;;;1.85;63.13;100061.94;5132976;27;20351;-71
2021/04/26 02:45:48;;;;;;;;;;;;;;;1.78;63.49;100054.94;5133460;27;19938;-72
2021/04/26 02:48:29;;;;;;;;;;;;;;;1.70;64.04;100058.84;5133420;27;19937;-71
2021/04/26 02:51:12;;;;;;;;;;;;;;;1.65;64.27;100057.78;5133170;27;19912;-72
2021/04/26 02:53:53;;;;;;;;;;;;;;;1.70;64.33;100071.41;5132706;27;19916;-72
2021/04/26 02:56:37;;;;;;;;;;;;;;;1.62;64.04;100062.69;5133462;27;20311;-71
2021/04/26 02:59:20;;;;;;;;;;;;;;;1.60;64.37;100060.13;5133480;27;19912;-72
2021/04/26 03:02:07;;;;;;;;;;;;;;;1.59;64.52;100062.56;5133504;27;19938;-72
2021/04/26 03:05:12;;;;;;;;;;;;;;;1.48;64.59;100066.28;5133481;27;19937;-71
2021/04/26 03:07:54;;;;;;;;;;;;;;;1.47;64.97;100072.09;5133454;27;19912;-72
2021/04/26 03:10:35;;;;;;;;;;;;;;;1.54;65.10;100079.09;5133426;27;19938;-71
2021/04/26 03:13:17;;;;;;;;;;;;;;;1.62;64.59;100082.81;5133455;27;19937;-71
2021/04/26 03:15:58;;;;;;;;;;;;;;;1.58;64.70;100080.97;5133519;27;19911;-71
2021/04/26 03:18:40;;;;;;;;;;;;;;;1.53;65.00;100082.44;5133447;27;19937;-73
2021/04/26 03:21:23;;;;;;;;;;;;;;;1.46;65.12;100077.94;5133517;27;19916;-70
2021/04/26 03:24:07;;;;;;;;;;;;;;;1.35;65.43;100077.47;5132937;27;20339;-71
2021/04/26 03:26:49;;;;;;;;;;;;;;;1.26;65.66;100079.63;5133437;27;19981;-72
2021/04/26 03:29:31;;;;;;;;;;;;;;;1.26;65.70;100080.50;5132856;27;20450;-71
2021/04/26 03:32:14;;;;;;;;;;;;;;;1.17;66.23;100076.72;5132530;27;20393;-72
2021/04/26 03:35:04;;;;;;;;;;;;;;;1.12;66.25;100074.03;5111907;27;20442;-72
2021/04/26 03:37:51;;;;;;;;;;;;;;;1.04;66.50;100079.50;5132814;27;20442;-72
2021/04/26 03:40:31;;;;;;;;;;;;;;;1.02;66.76;100079.44;5112150;27;19912;-72
2021/04/26 03:43:14;;;;;;;;;;;;;;;0.98;67.02;100075.09;5131202;27;19942;-73
2021/04/26 03:46:06;;;;;;;;;;;;;;;1.05;66.97;100081.22;5133478;27;19937;-71
2021/04/26 03:49:01;;;;;;;;;;;;;;;1.03;66.94;100083.66;5133059;27;19912;-71
2021/04/26 03:51:55;;;;;;;;;;;;;;;1.09;67.41;100078.91;5130064;28;19930;-72
2021/04/26 03:54:46;;;;;;;;;;;;;;;1.09;66.81;100081.41;5132979;27;20008;-72
2021/04/26 03:57:27;;;;;;;;;;;;;;;1.17;67.33;100081.75;5133387;27;19942;-73
2021/04/26 04:00:06;;;;;;;;;;;;;;;1.41;67.36;100082.78;5107918;27;1657018;-72
2021/04/26 04:03:03;;;;;;;;;;;;;;;1.65;66.80;100075.38;5133452;27;20012;-73
2021/04/26 04:05:43;;;;;;;;;;;;;;;1.78;66.79;100075.94;5132732;27;19912;-72
2021/04/26 04:08:34;;;;;;;;;;;;;;;2.02;65.82;100081.09;5129014;28;19928;-73
2021/04/26 04:11:15;;;;;;;;;;;;;;;2.30;65.88;100081.38;5133378;27;19941;-72
2021/04/26 04:14:06;;;;;;;;;;;;;;;2.50;65.45;100084.63;5133381;27;20293;-73
2021/04/26 04:16:56;;;;;;;;;;;;;;;2.73;64.23;100082.16;5133456;27;20362;-71
2021/04/26 04:19:37;;;;;;;;;;;;;;;3.03;64.09;100077.34;5133401;27;20002;-71
2021/04/26 04:22:23;;;;;;;;;;;;;;;3.27;62.61;100074.81;5133474;27;19912;-70
2021/04/26 04:25:13;;;;;;;;;;;;;;;3.33;62.48;100075.91;5133054;27;19916;-72
2021/04/26 04:27:54;;;;;;;;;;;;;;;3.40;61.84;100079.50;5133465;27;19920;-70
2021/04/26 04:30:36;;;;;;;;;;;;;;;3.40;61.45;100084.56;5133387;27;19916;-71
2021/04/26 04:33:27;;;;;;;;;;;;;;;3.45;60.68;100075.47;5133407;27;19938;-70
2021/04/26 04:36:10;;;;;;;;;;;;;;;3.47;61.34;100066.28;5112822;27;19912;-68
2021/04/26 04:39:00;;;;;;;;;;;;;;;3.47;60.92;100066.28;5133470;27;19938;-70
2021/04/26 04:41:50;;;;;;;;;;;;;;;3.53;60.90;100066.47;5101009;27;19925;-70
2021/04/26 04:44:30;;;;;;;;;;;;;;;3.62;60.00;100060.91;5092523;27;19923;-71
2021/04/26 04:47:11;;;;;;;;;;;;;;;3.67;60.39;100064.44;5132644;27;19912;-70
2021/04/26 04:49:52;;;;;;;;;;;;;;;3.68;59.59;100061.06;5133403;27;19941;-71
2021/04/26 04:52:32;;;;;;;;;;;;;;;3.69;60.22;100057.75;5133281;27;19984;-68
2021/04/26 04:55:15;;;;;;;;;;;;;;;3.75;59.92;100058.81;5133454;27;19933;-69
2021/04/26 04:57:55;;;;;;;;;;;;;;;3.87;59.46;100055.81;5132693;27;20019;-70
2021/04/26 05:00:35;;;;;;;;;;;;;;;3.96;59.69;100059.47;5133303;27;20015;-70
2021/04/26 05:03:31;;;;;;;;;;;;;;;4.01;59.32;100063.00;5132859;27;19938;-70
2021/04/26 05:06:22;;;;;;;;;;;;;;;4.16;58.46;100061.75;5132965;27;19911;-70
2021/04/26 05:09:13;;;;;;;;;;;;;;;4.30;59.44;100060.50;5133128;27;19911;-71
2021/04/26 05:12:04;;;;;;;;;;;;;;;4.43;58.81;100062.59;5133440;27;19920;-71
2021/04/26 05:14:58;;;;;;;;;;;;;;;4.58;58.86;100052.97;5118628;27;20373;-70
2021/04/26 05:17:40;;;;;;;;;;;;;;;4.67;58.22;100050.69;5132642;27;19916;-70
2021/04/26 05:20:21;;;;;;;;;;;;;;;4.85;58.09;100052.88;5133326;27;19924;-70
2021/04/26 05:23:03;;;;;;;;;;;;;;;4.94;56.93;100048.94;5133362;27;20323;-71
2021/04/26 05:25:44;;;;;;;;;;;;;;;5.02;56.68;100050.00;5133092;27;19940;-70
2021/04/26 05:28:25;;;;;;;;;;;;;;;5.16;56.73;100061.31;5132574;27;19941;-69
2021/04/26 05:31:10;;;;;;;;;;;;;;;5.27;56.64;100057.44;5133321;27;20007;-69
2021/04/26 05:33:51;;;;;;;;;;;;;;;5.39;55.73;100060.28;5133370;27;20361;-69
2021/04/26 05:36:39;;;;;;;;;;;;;;;5.56;55.96;100057.31;5132320;28;19927;-68
2021/04/26 05:39:21;;;;;;;;;;;;;;;5.72;55.68;100059.41;5133340;27;19941;-70
2021/04/26 05:42:02;;;;;;;;;;;;;;;5.87;55.30;100059.81;5133385;27;19923;-70
2021/04/26 05:44:43;;;;;;;;;;;;;;;6.00;54.85;100054.19;5133369;27;19916;-70
2021/04/26 05:47:34;;;;;;;;;;;;;;;6.14;54.38;100050.34;5112483;27;19923;-70
2021/04/26 05:50:14;;;;;;;;;;;;;;;6.35;54.58;100050.81;5133280;27;19915;-70
2021/04/26 05:52:54;;;;;;;;;;;;;;;6.55;53.97;100041.94;5133279;27;20262;-71
2021/04/26 05:55:35;;;;;;;;;;;;;;;6.73;53.61;100042.31;5133250;27;19941;-70
2021/04/26 05:58:15;;;;;;;;;;;;;;;6.81;52.78;100042.47;5132819;27;19923;-70
2021/04/26 06:00:55;;;;;;;;;;;;;;;6.91;52.47;100043.50;5133347;27;19916;-70
2021/04/26 06:03:35;;;;;;;;;;;;;;;7.03;51.79;100043.75;5133333;27;19941;-69
2021/04/26 06:06:15;;;;;;;;;;;;;;;7.21;51.44;100039.00;5133422;27;19916;-70
2021/04/26 06:08:54;;;;;;;;;;;;;;;7.46;51.59;100038.63;5132679;27;19941;-72
2021/04/26 06:11:34;;;;;;;;;;;;;;;7.61;51.22;100036.34;5132569;27;20072;-71
2021/04/26 06:14:16;;;;;;;;;;;;;;;7.76;50.78;100038.28;5132422;27;19915;-71
2021/04/26 06:16:55;;;;;;;;;;;;;;;7.92;50.44;100037.66;5132479;27;19916;-69
2021/04/26 06:19:35;;;;;;;;;;;;;;;8.08;49.71;100027.78;5131805;27;19916;-71
2021/04/26 06:22:16;;;;;;;;;;;;;;;8.25;49.33;100022.09;5131664;27;19920;-68
2021/04/26 06:24:55;;;;;;;;;;;;;;;8.32;49.17;100021.38;5136730;27;1642292;-72
2021/04/26 06:27:36;;;;;;;;;;;;;;;8.32;49.16;100019.69;5133294;27;20327;-70
2021/04/26 06:30:17;;;;;;;;;;;;;;;8.34;48.54;100023.09;5132592;27;19920;-70
2021/04/26 06:32:58;;;;;;;;;;;;;;;8.43;49.15;100017.25;5133211;27;19915;-69
2021/04/26 06:35:39;;;;;;;;;;;;;;;8.53;48.49;100019.09;5132737;27;19916;-71
2021/04/26 06:38:21;;;;;;;;;;;;;;;8.64;48.49;100017.53;5132766;27;20458;-69
2021/04/26 06:41:02;;;;;;;;;;;;;;;8.74;48.56;100014.28;5133216;27;20385;-71
2021/04/26 06:43:41;;;;;;;;;;;;;;;8.93;48.59;100010.25;5132514;27;20419;-71
2021/04/26 06:46:23;;;;;;;;;;;;;;;9.10;47.41;100009.59;5133171;27;19915;-70
2021/04/26 06:49:03;;;;;;;;;;;;;;;9.20;46.20;100018.19;5133305;27;19915;-70
2021/04/26 06:51:42;;;;;;;;;;;;;;;9.40;47.00;100015.00;5132725;27;19916;-71
2021/04/26 06:54:22;;;;;;;;;;;;;;;9.57;45.37;100016.84;5132602;27;19915;-69
2021/04/26 06:57:04;;;;;;;;;;;;;;;9.58;44.72;100009.19;5132417;27;19916;-72
2021/04/26 06:59:43;;;;;;;;;;;;;;;9.55;44.00;100010.88;5132389;27;19916;-71
2021/04/26 07:02:23;;;;;;;;;;;;;;;9.53;43.88;100022.72;5132498;27;20457;-70
2021/04/26 07:05:06;;;;;;;;;;;;;;;9.59;44.56;100012.59;5132330;27;19916;-70
2021/04/26 07:07:46;;;;;;;;;;;;;;;9.77;43.65;99995.75;5132449;27;20346;-70
2021/04/26 07:10:28;;;;;;;;;;;;;;;9.95;43.26;100000.16;5132573;27;19911;-70
2021/04/26 07:13:07;;;;;;;;;;;;;;;10.22;43.33;100004.59;5132341;27;19916;-67
2021/04/26 07:15:47;;;;;;;;;;;;;;;10.32;41.58;100002.09;5132479;27;19936;-70
2021/04/26 07:18:27;;;;;;;;;;;;;;;10.37;41.48;99999.56;5132228;27;20016;-69
2021/04/26 07:21:07;;;;;;;;;;;;;;;10.52;40.81;100007.28;5132421;27;20375;-70
2021/04/26 07:23:46;;;;;;;;;;;;;;;10.56;40.79;100007.31;5133287;27;20258;-71
2021/04/26 07:26:28;;;;;;;;;;;;;;;10.63;40.40;100006.50;5132821;27;19920;-74
2021/04/26 07:29:07;;;;;;;;;;;;;;;10.56;39.68;99998.81;5132969;27;19916;-71
2021/04/26 07:31:59;;;;;;;;;;;;;;;10.49;39.41;100008.13;5132485;27;19915;-70
2021/04/26 07:34:40;;;;;;;;;;;;;;;10.61;40.19;100010.75;5132141;27;20501;-71
2021/04/26 07:37:22;;;;;;;;;;;;;;;10.74;39.13;100012.50;5132995;27;19916;-70
2021/04/26 07:40:02;;;;;;;;;;;;;;;10.84;39.48;100002.34;5132474;27;19941;-71
2021/04/26 07:42:43;;;;;;;;;;;;;;;10.94;38.97;100004.91;5132695;27;19920;-72
2021/04/26 07:45:25;;;;;;;;;;;;;;;10.97;38.06;100010.03;5133107;27;19941;-72
2021/04/26 07:48:05;;;;;;;;;;;;;;;11.00;38.29;100009.19;5132725;27;19916;-72
2021/04/26 07:50:44;;;;;;;;;;;;;;;10.99;38.11;100010.03;5136153;27;1671064;-72
2021/04/26 07:53:24;;;;;;;;;;;;;;;10.98;37.77;100008.31;5132467;27;19915;-72
2021/04/26 07:56:04;;;;;;;;;;;;;;;10.92;37.16;100010.88;5132659;27;19916;-71
2021/04/26 07:58:45;;;;;;;;;;;;;;;11.02;37.37;100010.03;5133171;27;19916;-72
2021/04/26 08:01:33;;;;;;;;;;;;;;;10.99;36.96;100007.50;5114267;28;20282;-72
2021/04/26 08:04:21;;;;;;;;;;;;;;;11.13;35.68;100006.66;5103047;27;19924;-72
2021/04/26 08:07:10;;;;;;;;;;;;;;;11.34;35.03;100010.97;5116762;28;20434;-72
2021/04/26 08:09:58;;;;;;;;;;;;;;;11.58;34.95;100007.56;5114053;28;19923;-72
2021/04/26 08:12:46;;;;;;;;;;;;;;;11.71;34.62;99992.25;5122541;27;20022;-71
2021/04/26 08:15:35;;;;;;;;;;;;;;;11.74;34.07;100002.50;5096965;28;19936;-72
2021/04/26 08:18:23;;;;;;;;;;;;;;;11.75;34.46;99999.09;5097027;27;20442;-73
2021/04/26 08:21:11;;;;;;;;;;;;;;;11.90;34.91;99993.94;5105363;27;19987;-71
2021/04/26 08:23:59;;;;;;;;;;;;;;;12.19;34.76;99995.63;5088920;28;19923;-71
2021/04/26 08:26:47;;;;;;;;;;;;;;;12.19;33.91;99995.63;5105229;28;20015;-71
2021/04/26 08:29:35;;;;;;;;;;;;;;;12.28;33.92;99993.03;5116140;27;19925;-72
2021/04/26 08:32:24;;;;;;;;;;;;;;;12.16;33.19;99990.50;5105178;27;20022;-72
2021/04/26 08:35:12;;;;;;;;;;;;;;;12.11;33.10;99987.97;5088371;27;19930;-72
2021/04/26 08:38:00;;;;;;;;;;;;;;;11.85;33.61;99989.72;5104956;27;19930;-72
2021/04/26 08:40:48;;;;;;;;;;;;;;;12.04;35.01;99992.22;5105260;28;20393;-72
2021/04/26 08:43:38;;;;;;;;;;;;;;;12.17;34.38;99981.97;5105051;27;19959;-72
2021/04/26 08:46:26;;;;;;;;;;;;;;;12.15;33.64;99976.00;5105116;28;20066;-72
2021/04/26 08:49:16;;;;;;;;;;;;;;;12.35;34.13;99971.69;5105027;27;19923;-72
2021/04/26 08:52:04;;;;;;;;;;;;;;;12.38;33.98;99975.06;5088406;27;20010;-72
2021/04/26 08:54:53;;;;;;;;;;;;;;;12.48;34.35;99979.31;5088415;28;19924;-73
2021/04/26 08:57:41;;;;;;;;;;;;;;;12.42;34.15;99968.25;5113162;28;19930;-72
2021/04/26 09:00:29;;;;;;;;;;;;;;;12.63;34.79;99968.16;5101416;28;20392;-72
2021/04/26 09:03:17;;;;;;;;;;;;;;;12.73;34.93;99972.38;5122587;28;19955;-72
2021/04/26 09:05:47;;;;;;;;;;;;;;;12.99;34.67;99962.84;5131003;27;19949;-71
2021/04/26 09:08:22;;;;;;;;;;;;;;;13.05;33.92;99967.91;5127774;28;19932;-72
2021/04/26 09:10:51;;;;;;;;;;;;;;;13.11;34.41;99965.38;5150385;27;19923;-72
2021/04/26 09:13:30;;;;;;;;;;;;;;;13.06;33.89;99967.09;5117080;28;19930;-72
2021/04/26 09:15:59;;;;;;;;;;;;;;;13.18;34.06;99964.47;5117135;28;19924;-73
2021/04/26 09:18:38;;;;;;;;;;;;;;;13.08;32.50;99955.13;5117336;28;19977;-73
2021/04/26 09:21:13;;;;;;;;;;;;;;;13.00;32.47;99959.44;5117100;28;20370;-72
2021/04/26 09:23:40;;;;;;;;;;;;;;;12.98;33.03;99948.31;5117181;28;19966;-72
2021/04/26 09:26:22;;;;;;;;;;;;;;;13.16;33.66;99955.94;5116630;28;19927;-72
2021/04/26 09:29:02;;;;;;;;;;;;;;;13.29;33.54;99949.03;5116888;28;20263;-71
2021/04/26 09:31:31;;;;;;;;;;;;;;;13.33;33.44;99949.00;5116904;28;19978;-71
2021/04/26 09:33:58;;;;;;;;;;;;;;;13.21;32.44;99943.94;5116842;28;19923;-71
2021/04/26 09:36:31;;;;;;;;;;;;;;;12.93;32.01;99944.97;5116893;28;19931;-71
2021/04/26 09:39:02;;;;;;;;;;;;;;;12.77;31.92;99931.38;5117210;28;19924;-71
2021/04/26 09:41:30;;;;;;;;;;;;;;;13.03;32.96;99938.91;5116780;28;19928;-71
2021/04/26 09:44:09;;;;;;;;;;;;;;;13.46;34.04;99928.38;5116535;28;19923;-72
2021/04/26 09:46:43;;;;;;;;;;;;;;;14.13;35.66;99929.44;5116758;27;19928;-72
2021/04/26 09:49:13;;;;;;;;;;;;;;;14.05;33.20;99920.94;5116986;27;19924;-72
2021/04/26 09:51:41;;;;;;;;;;;;;;;13.72;31.92;99911.03;5116363;28;19992;-72
2021/04/26 09:54:09;;;;;;;;;;;;;;;13.78;33.25;99910.97;5114883;28;19959;-71
2021/04/26 09:56:40;;;;;;;;;;;;;;;13.99;32.34;99915.88;5116303;28;19936;-71
2021/04/26 09:59:09;;;;;;;;;;;;;;;13.98;31.60;99903.91;5117103;28;19923;-70
2021/04/26 10:01:38;;;;;;;;;;;;;;;13.81;31.52;99898.97;5116863;28;20316;-71
2021/04/26 10:04:07;;;;;;;;;;;;;;;13.67;31.67;99892.28;5116261;28;19923;-72
2021/04/26 10:06:37;;;;;;;;;;;;;;;13.71;31.46;99894.78;5115938;28;19962;-72
2021/04/26 10:09:07;;;;;;;;;;;;;;;13.73;31.46;99892.19;5116071;28;19955;-73
2021/04/26 10:11:37;;;;;;;;;;;;;;;13.73;31.56;99884.50;5116196;28;19938;-75
2021/04/26 10:14:06;;;;;;;;;;;;;;;13.47;31.55;99876.22;5116352;28;20382;-72
2021/04/26 10:16:37;;;;;;;;;;;;;;;13.53;31.73;99869.34;5116059;28;19981;-72
2021/04/26 10:19:06;;;;;;;;;;;;;;;13.62;32.25;99863.25;5116049;28;19923;-72
2021/04/26 10:21:36;;;;;;;;;;;;;;;13.73;32.19;99856.28;5114884;28;19923;-71
2021/04/26 10:24:14;;;;;;;;;;;;;;;13.72;31.81;99859.72;5116218;28;19959;-68
2021/04/26 10:26:47;;;;;;;;;;;;;;;13.63;31.41;99859.84;5115766;28;19946;-72
2021/04/26 10:29:18;;;;;;;;;;;;;;;13.69;31.64;99854.63;5115825;28;19970;-71
2021/04/26 10:31:58;;;;;;;;;;;;;;;13.62;31.32;99853.00;5116368;28;19931;-70
2021/04/26 10:34:28;;;;;;;;;;;;;;;13.72;31.66;99849.47;5115634;28;19935;-71
2021/04/26 10:36:58;;;;;;;;;;;;;;;13.65;31.47;99843.56;5116280;28;19924;-67
2021/04/26 10:39:27;;;;;;;;;;;;;;;13.43;31.42;99837.81;5115994;28;20325;-70
2021/04/26 10:42:11;;;;;;;;;;;;;;;13.32;31.38;99831.91;5115576;28;19930;-69
2021/04/26 10:44:50;;;;;;;;;;;;;;;13.36;31.40;99831.00;5115436;28;19930;-72
2021/04/26 10:47:23;;;;;;;;;;;;;;;13.51;31.80;99829.19;5115477;28;19973;-72
2021/04/26 10:49:52;;;;;;;;;;;;;;;13.77;32.34;99817.75;5115677;28;20051;-72
2021/04/26 10:52:33;;;;;;;;;;;;;;;13.95;33.39;99814.13;5115622;28;19977;-72
2021/04/26 10:55:03;;;;;;;;;;;;;;;14.14;33.52;99818.16;5115310;28;20018;-72
2021/04/26 10:57:32;;;;;;;;;;;;;;;14.08;32.51;99818.25;5114983;28;19928;-72
2021/04/26 11:00:10;;;;;;;;;;;;;;;14.53;33.45;99806.53;5115491;28;19973;-72
2021/04/26 11:02:38;;;;;;;;;;;;;;;15.00;33.49;99798.06;5115337;28;20338;-72
2021/04/26 11:05:17;;;;;;;;;;;;;;;15.20;32.96;99796.88;5096818;28;19923;-73
2021/04/26 11:07:49;;;;;;;;;;;;;;;15.34;32.49;99794.91;5115183;28;20419;-72
2021/04/26 11:10:28;;;;;;;;;;;;;;;15.30;32.12;99793.25;5115076;28;19934;-69
2021/04/26 11:12:56;;;;;;;;;;;;;;;15.50;32.11;99797.22;5114972;28;19924;-72
2021/04/26 11:15:24;;;;;;;;;;;;;;;15.76;32.30;99788.13;5114785;28;19924;-72
2021/04/26 11:17:53;;;;;;;;;;;;;;;15.92;31.83;99784.34;5114730;28;20351;-72
2021/04/26 11:20:23;;;;;;;;;;;;;;;15.86;30.76;99788.78;5114789;28;19928;-72
2021/04/26 11:22:53;;;;;;;;;;;;;;;15.78;31.51;99785.50;5114794;28;20026;-72
2021/04/26 11:25:39;;;;;;;;;;;;;;;15.74;30.77;99779.56;5114695;28;19935;-71
2021/04/26 11:28:09;;;;;;;;;;;;;;;15.48;30.83;99776.66;5114623;28;19928;-73
2021/04/26 11:30:37;;;;;;;;;;;;;;;15.20;31.34;99771.16;5114551;28;19927;-73
2021/04/26 11:33:11;;;;;;;;;;;;;;;14.99;31.48;99765.53;5114195;28;19927;-72
2021/04/26 11:35:49;;;;;;;;;;;;;;;15.01;32.12;99763.78;5113944;28;20015;-73
2021/04/26 11:38:20;;;;;;;;;;;;;;;14.95;31.29;99756.19;5114696;28;19951;-72
2021/04/26 11:40:51;;;;;;;;;;;;;;;15.10;31.51;99753.34;5114649;28;20370;-71
2021/04/26 11:43:33;;;;;;;;;;;;;;;15.26;30.91;99750.47;5114718;28;20020;-73
2021/04/26 11:46:01;;;;;;;;;;;;;;;15.25;31.45;99747.94;5114590;28;20417;-73
2021/04/26 11:48:32;;;;;;;;;;;;;;;15.43;31.49;99747.56;5114469;28;19963;-72
2021/04/26 11:51:08;;;;;;;;;;;;;;;15.76;31.46;99741.81;5114379;28;19924;-72
2021/04/26 11:53:36;;;;;;;;;;;;;;;15.75;30.57;99734.94;5114422;28;19923;-72
2021/04/26 11:56:11;;;;;;;;;;;;;;;15.80;30.48;99730.56;5113924;28;19924;-72
2021/04/26 11:58:39;;;;;;;;;;;;;;;15.41;29.58;99728.75;5114073;28;20319;-72
2021/04/26 12:01:08;;;;;;;;;;;;;;;14.63;30.01;99721.63;5114173;28;19950;-73
2021/04/26 12:03:54;;;;;;;;;;;;;;;14.37;30.32;99715.19;5114295;28;19924;-72
2021/04/26 12:06:24;;;;;;;;;;;;;;;14.57;30.66;99711.41;5114661;28;20018;-72
2021/04/26 12:08:51;;;;;;;;;;;;;;;14.85;31.20;99716.09;5114402;28;19931;-72
2021/04/26 12:11:20;;;;;;;;;;;;;;;14.87;30.21;99706.63;5114221;28;19938;-72
2021/04/26 12:13:59;;;;;;;;;;;;;;;14.83;29.99;99703.25;5114295;28;19923;-72
2021/04/26 12:16:26;;;;;;;;;;;;;;;14.78;30.30;99693.06;5114726;28;19964;-72
2021/04/26 12:18:58;;;;;;;;;;;;;;;15.13;29.94;99691.59;5114093;28;19931;-72
2021/04/26 12:21:27;;;;;;;;;;;;;;;15.26;30.05;99687.91;5114699;28;19924;-74
2021/04/26 12:23:55;;;;;;;;;;;;;;;15.41;30.79;99675.59;5115293;28;19931;-72
2021/04/26 12:26:24;;;;;;;;;;;;;;;15.51;31.50;99673.69;5114384;28;20302;-72
2021/04/26 12:28:51;;;;;;;;;;;;;;;15.45;30.83;99673.84;5114053;28;20266;-72
2021/04/26 12:31:20;;;;;;;;;;;;;;;15.28;30.49;99668.97;5114307;28;19945;-72
2021/04/26 12:33:48;;;;;;;;;;;;;;;15.19;31.13;99673.47;5114099;28;20388;-73
2021/04/26 12:36:16;;;;;;;;;;;;;;;15.07;31.47;99666.00;5113931;28;19923;-73
2021/04/26 12:38:49;;;;;;;;;;;;;;;15.07;32.28;99666.00;5095967;28;20010;-73
2021/04/26 12:41:18;;;;;;;;;;;;;;;14.76;31.13;99658.84;5113931;28;20476;-71
2021/04/26 12:43:52;;;;;;;;;;;;;;;14.89;31.45;99653.50;5114819;28;19924;-72
2021/04/26 12:46:21;;;;;;;;;;;;;;;15.02;30.81;99642.13;5117871;28;20281;-72
2021/04/26 12:48:51;;;;;;;;;;;;;;;14.98;30.50;99640.47;5099727;28;19988;-73
2021/04/26 12:51:36;;;;;;;;;;;;;;;14.94;30.86;99634.56;5118321;28;19924;-74
2021/04/26 12:54:11;;;;;;;;;;;;;;;14.79;30.96;99634.81;5118709;28;19923;-73
2021/04/26 12:56:39;;;;;;;;;;;;;;;14.63;30.49;99623.16;5117492;28;19947;-72
2021/04/26 12:59:07;;;;;;;;;;;;;;;14.57;30.54;99613.81;5117560;28;19927;-73
2021/04/26 13:01:35;;;;;;;;;;;;;;;14.51;30.49;99619.06;5117276;28;20000;-72
2021/04/26 13:04:03;;;;;;;;;;;;;;;14.53;30.86;99608.75;5099219;28;19924;-73
2021/04/26 13:06:32;;;;;;;;;;;;;;;14.36;32.55;99619.34;5117408;28;20331;-73
2021/04/26 13:09:00;;;;;;;;;;;;;;;14.34;32.53;99605.69;5117380;28;19924;-73
2021/04/26 13:11:31;;;;;;;;;;;;;;;14.73;33.22;99597.25;5099203;28;20365;-72
2021/04/26 13:14:00;;;;;;;;;;;;;;;15.00;33.79;99592.44;5116708;28;19924;-75
2021/04/26 13:16:29;;;;;;;;;;;;;;;15.13;32.09;99594.75;5117200;28;19924;-73
2021/04/26 13:18:59;;;;;;;;;;;;;;;15.36;32.67;99576.25;5117125;28;19928;-74
2021/04/26 13:21:32;;;;;;;;;;;;;;;15.31;32.01;99572.94;5117122;28;20446;-73
2021/04/26 13:24:10;;;;;;;;;;;;;;;15.37;31.79;99567.66;5117141;28;19930;-72
2021/04/26 13:26:40;;;;;;;;;;;;;;;15.17;32.26;99567.25;5117087;28;20333;-73
2021/04/26 13:29:09;;;;;;;;;;;;;;;15.17;32.43;99577.50;5116978;28;19924;-73
2021/04/26 13:31:37;;;;;;;;;;;;;;;15.04;31.23;99563.25;5116852;28;19935;-74
2021/04/26 13:34:05;;;;;;;;;;;;;;;15.01;30.93;99558.16;5116702;28;19973;-73
2021/04/26 13:36:33;;;;;;;;;;;;;;;14.95;30.88;99564.25;5116785;28;19931;-73
2021/04/26 13:39:01;;;;;;;;;;;;;;;15.01;31.13;99558.16;5116685;28;19924;-74
2021/04/26 13:41:28;;;;;;;;;;;;;;;15.10;30.97;99552.81;5116720;28;19924;-74
2021/04/26 13:43:57;;;;;;;;;;;;;;;15.21;32.32;99551.72;5116654;28;20381;-73
2021/04/26 13:46:25;;;;;;;;;;;;;;;15.36;32.81;99555.69;5116681;28;20002;-72